createdAt,value
2023-04-16T00:00:07.920Z,7.95
2023-04-16T00:02:34.543Z,7.95
2023-04-16T00:05:04.092Z,7.94
2023-04-16T00:07:33.072Z,7.95
2023-04-16T00:09:59.631Z,7.96
2023-04-16T00:12:26.126Z,7.95
2023-04-16T00:14:55.286Z,7.97
2023-04-16T00:17:21.781Z,8.00
2023-04-16T00:19:48.253Z,7.99
2023-04-16T00:22:14.728Z,8.00
2023-04-16T00:24:41.526Z,7.97
2023-04-16T00:27:10.735Z,7.99
2023-04-16T00:29:37.239Z,7.99
2023-04-16T00:32:03.765Z,7.99
2023-04-16T00:34:30.492Z,7.99
2023-04-16T00:36:56.924Z,8.00
2023-04-16T00:39:23.558Z,8.00
2023-04-16T00:41:52.246Z,8.02
2023-04-16T00:44:21.417Z,8.00
2023-04-16T00:46:48.028Z,8.00
2023-04-16T00:49:14.917Z,8.02
2023-04-16T00:51:41.452Z,8.01
2023-04-16T00:54:07.964Z,8.01
2023-04-16T00:56:38.007Z,8.02
2023-04-16T00:59:07.658Z,8.02
2023-04-16T01:01:39.188Z,8.01
2023-04-16T01:04:07.203Z,8.01
2023-04-16T01:06:34.255Z,8.01
2023-04-16T01:09:05.737Z,8.00
2023-04-16T01:11:32.673Z,8.00
2023-04-16T01:13:59.139Z,8.00
2023-04-16T01:16:26.876Z,7.98
2023-04-16T01:18:53.450Z,7.98
2023-04-16T01:21:19.952Z,7.98
2023-04-16T01:23:46.526Z,7.98
2023-04-16T01:26:18.090Z,7.97
2023-04-16T01:28:44.570Z,7.96
2023-04-16T01:31:11.132Z,7.96
2023-04-16T01:33:40.632Z,7.96
2023-04-16T01:36:09.599Z,7.97
2023-04-16T01:38:38.496Z,7.95
2023-04-16T01:41:09.807Z,7.96
2023-04-16T01:43:40.274Z,7.96
2023-04-16T01:46:25.949Z,7.99
2023-04-16T01:48:54.918Z,7.98
2023-04-16T01:51:22.178Z,8.00
2023-04-16T01:53:49.467Z,7.99
2023-04-16T01:56:16.179Z,7.99
2023-04-16T01:58:46.449Z,8.00
2023-04-16T02:01:13.746Z,8.00
2023-04-16T02:03:40.954Z,8.02
2023-04-16T02:06:10.314Z,8.02
2023-04-16T02:08:39.232Z,8.02
2023-04-16T02:11:05.795Z,8.03
2023-04-16T02:13:35.748Z,8.03
2023-04-16T02:16:02.718Z,8.03
2023-04-16T02:18:29.304Z,8.03
2023-04-16T02:21:01.043Z,8.02
2023-04-16T02:23:27.726Z,8.05
2023-04-16T02:25:58.878Z,8.05
2023-04-16T02:28:27.719Z,8.04
2023-04-16T02:30:56.567Z,8.04
2023-04-16T02:33:26.736Z,8.05
2023-04-16T02:35:53.282Z,8.04
2023-04-16T02:38:19.788Z,8.05
2023-04-16T02:40:46.309Z,8.06
2023-04-16T02:43:12.795Z,8.06
2023-04-16T02:45:39.309Z,8.08
2023-04-16T02:48:07.284Z,8.08
2023-04-16T02:50:33.757Z,8.08
2023-04-16T02:53:00.230Z,8.08
2023-04-16T02:55:26.853Z,8.07
2023-04-16T02:57:58.088Z,8.10
2023-04-16T03:00:24.558Z,8.10
2023-04-16T03:02:51.283Z,8.10
2023-04-16T03:05:22.858Z,8.10
2023-04-16T03:07:50.633Z,8.11
2023-04-16T03:10:19.477Z,8.12
2023-04-16T03:12:48.381Z,8.11
2023-04-16T03:15:15.229Z,8.13
2023-04-16T03:17:44.219Z,8.13
2023-04-16T03:20:11.169Z,8.13
2023-04-16T03:22:39.186Z,8.14
2023-04-16T03:25:06.602Z,8.13
2023-04-16T03:27:33.385Z,8.12
2023-04-16T03:30:03.265Z,8.12
2023-04-16T03:32:32.284Z,8.11
2023-04-16T03:34:58.904Z,8.10
2023-04-16T03:37:27.687Z,8.10
2023-04-16T03:39:54.320Z,8.10
2023-04-16T03:42:22.917Z,8.12
2023-04-16T03:44:53.592Z,8.12
2023-04-16T03:47:22.472Z,8.11
2023-04-16T03:49:51.312Z,8.10
2023-04-16T03:52:17.819Z,8.11
2023-04-16T03:54:46.818Z,8.11
2023-04-16T03:57:13.320Z,8.09
2023-04-16T03:59:42.056Z,8.09
2023-04-16T04:02:08.633Z,8.09
2023-04-16T04:04:35.318Z,8.08
2023-04-16T04:07:01.883Z,8.08
2023-04-16T04:09:28.405Z,8.09
2023-04-16T04:11:54.984Z,8.09
2023-04-16T04:14:21.743Z,8.07
2023-04-16T04:16:50.680Z,8.08
2023-04-16T04:19:17.197Z,8.05
2023-04-16T04:21:43.701Z,8.07
2023-04-16T04:24:10.381Z,8.08
2023-04-16T04:26:38.925Z,8.08
2023-04-16T04:29:05.654Z,8.07
2023-04-16T04:31:32.311Z,8.06
2023-04-16T04:34:01.025Z,8.08
2023-04-16T04:36:29.975Z,8.09
2023-04-16T04:38:56.486Z,8.07
2023-04-16T04:41:23.199Z,8.08
2023-04-16T04:43:49.679Z,8.08
2023-04-16T04:46:16.144Z,8.07
2023-04-16T04:48:44.914Z,8.08
2023-04-16T04:51:13.944Z,8.06
2023-04-16T04:53:42.954Z,8.08
2023-04-16T04:56:12.907Z,8.08
2023-04-16T04:58:40.900Z,8.09
2023-04-16T05:01:07.469Z,8.08
2023-04-16T05:03:34.057Z,8.09
2023-04-16T05:06:00.759Z,8.10
2023-04-16T05:08:29.384Z,8.11
2023-04-16T05:10:58.143Z,8.11
2023-04-16T05:13:24.707Z,8.10
2023-04-16T05:15:54.215Z,8.11
2023-04-16T05:18:20.641Z,8.09
2023-04-16T05:20:52.007Z,8.10
2023-04-16T05:23:18.456Z,8.12
2023-04-16T05:25:47.699Z,8.13
2023-04-16T05:28:14.588Z,8.13
2023-04-16T05:30:41.207Z,8.12
2023-04-16T05:33:07.726Z,8.14
2023-04-16T05:35:38.795Z,8.14
2023-04-16T05:38:05.269Z,8.14
2023-04-16T05:40:36.769Z,8.14
2023-04-16T05:43:03.380Z,8.16
2023-04-16T05:45:33.433Z,8.16
2023-04-16T05:48:00.019Z,8.16
2023-04-16T05:50:26.536Z,8.18
2023-04-16T05:52:57.994Z,8.19
2023-04-16T05:55:24.510Z,8.19
2023-04-16T05:57:52.077Z,8.20
2023-04-16T06:00:20.879Z,8.21
2023-04-16T06:02:47.549Z,8.21
2023-04-16T06:05:16.248Z,8.21
2023-04-16T06:07:47.527Z,8.23
2023-04-16T06:10:16.594Z,8.23
2023-04-16T06:12:45.373Z,8.24
2023-04-16T06:15:11.878Z,8.24
2023-04-16T06:17:40.795Z,8.26
2023-04-16T06:20:10.892Z,8.27
2023-04-16T06:22:37.551Z,8.27
2023-04-16T06:25:04.346Z,8.29
2023-04-16T06:27:31.422Z,8.30
2023-04-16T06:30:00.981Z,8.30
2023-04-16T06:32:30.086Z,8.31
2023-04-16T06:34:59.090Z,8.30
2023-04-16T06:37:25.630Z,8.35
2023-04-16T06:39:52.085Z,8.35
2023-04-16T06:42:18.549Z,8.34
2023-04-16T06:44:45.088Z,8.38
2023-04-16T06:47:16.200Z,8.40
2023-04-16T06:49:42.652Z,8.41
2023-04-16T06:52:11.439Z,8.46
2023-04-16T06:54:42.649Z,8.50
2023-04-16T06:57:13.920Z,8.49
2023-04-16T06:59:40.594Z,8.47
2023-04-16T07:02:10.601Z,8.47
2023-04-16T07:04:37.294Z,8.47
2023-04-16T07:07:06.105Z,8.49
2023-04-16T07:09:32.566Z,8.49
2023-04-16T07:11:59.058Z,8.48
2023-04-16T07:14:25.525Z,8.49
2023-04-16T07:16:52.095Z,8.49
2023-04-16T07:19:21.201Z,8.51
2023-04-16T07:21:47.812Z,8.50
2023-04-16T07:24:17.506Z,8.49
2023-04-16T07:26:43.983Z,8.52
2023-04-16T07:29:10.609Z,8.55
2023-04-16T07:31:37.311Z,8.56
2023-04-16T07:34:03.891Z,8.55
2023-04-16T07:36:32.852Z,8.56
2023-04-16T07:38:59.350Z,8.56
2023-04-16T07:41:29.394Z,8.61
2023-04-16T07:43:58.149Z,8.63
2023-04-16T07:46:28.236Z,8.64
2023-04-16T07:48:57.055Z,8.63
2023-04-16T07:51:23.957Z,8.59
2023-04-16T07:53:52.873Z,8.61
2023-04-16T07:56:19.335Z,8.64
2023-04-16T07:58:45.792Z,8.65
2023-04-16T08:01:16.797Z,8.69
2023-04-16T08:03:45.679Z,8.68
2023-04-16T08:06:12.368Z,8.67
2023-04-16T08:08:38.794Z,8.66
2023-04-16T08:11:05.282Z,8.69
2023-04-16T08:13:33.499Z,8.72
2023-04-16T08:16:03.566Z,8.73
2023-04-16T08:18:34.722Z,8.77
2023-04-16T08:21:01.512Z,8.82
2023-04-16T08:23:28.035Z,8.85
2023-04-16T08:25:56.755Z,8.88
2023-04-16T08:28:25.610Z,8.94
2023-04-16T08:30:52.181Z,8.94
2023-04-16T08:33:21.780Z,8.94
2023-04-16T08:35:48.362Z,9.00
2023-04-16T08:38:14.827Z,9.00
2023-04-16T08:40:48.672Z,9.02
2023-04-16T08:43:19.361Z,9.03
2023-04-16T08:45:50.532Z,9.09
2023-04-16T08:48:20.702Z,9.11
2023-04-16T08:50:52.299Z,9.08
2023-04-16T08:53:24.743Z,9.12
2023-04-16T08:56:02.107Z,9.16
2023-04-16T08:58:31.895Z,9.16
2023-04-16T09:01:03.265Z,9.11
2023-04-16T09:03:34.816Z,9.15
2023-04-16T09:06:04.478Z,9.22
2023-04-16T09:08:31.900Z,9.31
2023-04-16T09:11:01.883Z,9.35
2023-04-16T09:13:28.495Z,9.34
2023-04-16T09:15:56.956Z,9.32
2023-04-16T09:18:24.297Z,9.34
2023-04-16T09:20:51.938Z,9.39
2023-04-16T09:23:18.486Z,9.36
2023-04-16T09:25:45.122Z,9.43
2023-04-16T09:28:41.064Z,9.40
2023-04-16T09:31:11.311Z,9.45
2023-04-16T09:33:40.497Z,9.49
2023-04-16T09:36:07.592Z,9.49
2023-04-16T09:38:48.698Z,9.58
2023-04-16T09:41:18.517Z,9.61
2023-04-16T09:43:58.124Z,9.64
2023-04-16T09:46:29.991Z,9.67
2023-04-16T09:48:56.631Z,9.62
2023-04-16T09:51:28.305Z,9.64
2023-04-16T09:53:58.901Z,9.66
2023-04-16T09:56:26.135Z,9.66
2023-04-16T09:58:59.753Z,9.73
2023-04-16T10:01:26.392Z,9.69
2023-04-16T10:03:55.327Z,9.68
2023-04-16T10:06:29.096Z,9.68
2023-04-16T10:08:58.267Z,9.71
2023-04-16T10:11:25.709Z,9.70
2023-04-16T10:13:52.192Z,9.75
2023-04-16T10:16:23.482Z,9.77
2023-04-16T10:18:50.032Z,9.74
2023-04-16T10:21:16.746Z,9.78
2023-04-16T10:23:44.036Z,9.81
2023-04-16T10:26:13.916Z,9.82
2023-04-16T10:28:40.691Z,9.75
2023-04-16T10:31:10.636Z,9.75
2023-04-16T10:33:43.261Z,9.83
2023-04-16T10:36:22.855Z,9.91
2023-04-16T10:38:58.794Z,9.89
2023-04-16T10:41:28.831Z,9.92
2023-04-16T10:44:09.849Z,9.96
2023-04-16T10:46:39.929Z,9.94
2023-04-16T10:49:14.280Z,9.93
2023-04-16T10:51:53.359Z,9.98
2023-04-16T10:54:34.201Z,9.93
2023-04-16T10:57:10.140Z,9.88
2023-04-16T10:59:38.081Z,9.92
2023-04-16T11:02:11.860Z,9.92
2023-04-16T11:04:40.274Z,9.89
2023-04-16T11:07:18.797Z,9.95
2023-04-16T11:10:03.098Z,9.99
2023-04-16T11:12:29.836Z,9.91
2023-04-16T11:15:00.873Z,9.91
2023-04-16T11:17:43.150Z,9.94
2023-04-16T11:20:32.413Z,9.94
2023-04-16T11:22:58.962Z,9.88
2023-04-16T11:25:29.449Z,9.83
2023-04-16T11:27:59.186Z,9.79
2023-04-16T11:30:34.098Z,9.79
2023-04-16T11:33:09.404Z,9.92
2023-04-16T11:35:35.981Z,9.97
2023-04-16T11:38:02.594Z,9.95
2023-04-16T11:40:34.899Z,9.96
2023-04-16T11:43:17.203Z,10.02
2023-04-16T11:46:00.592Z,10.08
2023-04-16T11:48:46.932Z,10.18
2023-04-16T11:51:13.893Z,10.23
2023-04-16T11:53:51.363Z,10.28
2023-04-16T11:56:26.149Z,10.32
2023-04-16T11:59:14.418Z,10.41
2023-04-16T12:01:45.984Z,10.45
2023-04-16T12:04:19.216Z,10.43
2023-04-16T12:07:14.883Z,10.38
2023-04-16T12:09:43.412Z,10.29
2023-04-16T12:12:27.391Z,10.29
2023-04-16T12:14:54.780Z,10.29
2023-04-16T12:17:24.171Z,10.19
2023-04-16T12:19:56.022Z,10.14
2023-04-16T12:22:37.222Z,10.10
2023-04-16T12:25:10.621Z,10.21
2023-04-16T12:27:53.670Z,10.24
2023-04-16T12:30:26.069Z,10.24
2023-04-16T12:33:13.722Z,10.17
2023-04-16T12:35:43.541Z,10.16
2023-04-16T12:38:10.631Z,10.29
2023-04-16T12:40:39.337Z,10.36
2023-04-16T12:43:11.761Z,10.46
2023-04-16T12:45:39.753Z,10.61
2023-04-16T12:48:06.688Z,10.59
2023-04-16T12:50:35.771Z,10.51
2023-04-16T12:53:02.505Z,10.58
2023-04-16T12:55:28.952Z,10.67
2023-04-16T12:57:57.781Z,10.61
2023-04-16T13:00:26.748Z,10.57
2023-04-16T13:02:53.381Z,10.63
2023-04-16T13:05:22.650Z,10.64
2023-04-16T13:07:49.106Z,10.56
2023-04-16T13:10:18.155Z,10.57
2023-04-16T13:12:47.778Z,10.51
2023-04-16T13:15:14.279Z,10.52
2023-04-16T13:17:40.799Z,10.51
2023-04-16T13:20:10.123Z,10.48
2023-04-16T13:22:36.850Z,10.53
2023-04-16T13:25:03.394Z,10.58
2023-04-16T13:27:32.234Z,10.62
2023-04-16T13:30:01.347Z,10.56
2023-04-16T13:32:27.974Z,10.56
2023-04-16T13:34:54.580Z,10.64
2023-04-16T13:37:23.388Z,10.72
2023-04-16T13:39:52.578Z,10.67
2023-04-16T13:42:19.049Z,10.64
2023-04-16T13:44:48.845Z,10.57
2023-04-16T13:47:16.068Z,10.59
2023-04-16T13:49:47.601Z,10.58
2023-04-16T13:52:18.633Z,10.57
2023-04-16T13:54:45.100Z,10.61
2023-04-16T13:57:16.354Z,10.69
2023-04-16T13:59:42.806Z,10.78
2023-04-16T14:02:10.692Z,10.72
2023-04-16T14:04:37.233Z,10.64
2023-04-16T14:07:06.085Z,10.70
2023-04-16T14:09:35.097Z,10.82
2023-04-16T14:12:01.608Z,11.00
2023-04-16T14:14:35.373Z,11.07
2023-04-16T14:17:07.613Z,11.01
2023-04-16T14:19:34.428Z,10.94
2023-04-16T14:22:06.950Z,10.90
2023-04-16T14:24:34.410Z,10.95
2023-04-16T14:27:03.320Z,10.95
2023-04-16T14:29:36.364Z,11.02
2023-04-16T14:32:02.997Z,11.09
2023-04-16T14:34:29.497Z,11.19
2023-04-16T14:36:58.707Z,11.11
2023-04-16T14:39:27.605Z,10.94
2023-04-16T14:41:54.160Z,10.81
2023-04-16T14:44:21.593Z,10.83
2023-04-16T14:46:48.381Z,10.93
2023-04-16T14:49:15.107Z,10.93
2023-04-16T14:51:42.226Z,10.92
2023-04-16T14:54:09.141Z,11.05
2023-04-16T14:56:37.876Z,11.20
2023-04-16T14:59:04.611Z,11.11
2023-04-16T15:01:32.208Z,11.09
2023-04-16T15:04:02.050Z,11.10
2023-04-16T15:06:32.304Z,11.20
2023-04-16T15:08:58.996Z,11.38
2023-04-16T15:11:25.701Z,11.40
2023-04-16T15:13:54.525Z,11.35
2023-04-16T15:16:23.423Z,11.27
2023-04-16T15:18:50.795Z,11.28
2023-04-16T15:21:17.313Z,11.22
2023-04-16T15:23:46.169Z,11.17
2023-04-16T15:26:15.365Z,11.22
2023-04-16T15:28:41.849Z,11.13
2023-04-16T15:31:08.915Z,11.06
2023-04-16T15:33:35.448Z,11.04
2023-04-16T15:36:01.899Z,11.10
2023-04-16T15:38:30.656Z,11.04
2023-04-16T15:41:02.634Z,10.98
2023-04-16T15:43:29.776Z,10.97
2023-04-16T15:45:57.184Z,10.89
2023-04-16T15:48:24.528Z,10.92
2023-04-16T15:50:54.243Z,10.79
2023-04-16T15:53:21.209Z,10.72
2023-04-16T15:55:50.312Z,10.68
2023-04-16T15:58:16.937Z,10.67
2023-04-16T16:00:46.418Z,10.52
2023-04-16T16:03:19.144Z,10.44
2023-04-16T16:05:47.179Z,10.51
2023-04-16T16:08:16.935Z,10.54
2023-04-16T16:10:46.767Z,10.51
2023-04-16T16:13:16.014Z,10.42
2023-04-16T16:15:42.537Z,10.43
2023-04-16T16:18:09.243Z,10.37
2023-04-16T16:20:37.015Z,10.32
2023-04-16T16:23:06.358Z,10.36
2023-04-16T16:25:32.989Z,10.45
2023-04-16T16:27:59.984Z,10.52
2023-04-16T16:30:28.948Z,10.48
2023-04-16T16:32:58.302Z,10.42
2023-04-16T16:35:26.055Z,10.40
2023-04-16T16:37:57.307Z,10.44
2023-04-16T16:40:24.426Z,10.52
2023-04-16T16:42:53.660Z,10.54
2023-04-16T16:45:22.676Z,10.38
2023-04-16T16:47:51.854Z,10.33
2023-04-16T16:50:18.536Z,10.30
2023-04-16T16:52:47.268Z,10.28
2023-04-16T16:57:42.907Z,10.03
2023-04-16T17:00:15.043Z,10.00
2023-04-16T17:02:42.077Z,9.97
2023-04-16T17:05:09.482Z,9.91
2023-04-16T17:07:36.394Z,9.87
2023-04-16T17:10:05.269Z,9.87
2023-04-16T17:12:33.222Z,9.78
2023-04-16T17:15:01.750Z,9.81
2023-04-16T17:17:29.219Z,9.73
2023-04-16T17:19:55.733Z,9.71
2023-04-16T17:22:22.240Z,9.70
2023-04-16T17:24:48.817Z,9.65
2023-04-16T17:27:15.289Z,9.65
2023-04-16T17:29:44.179Z,9.64
2023-04-16T17:32:12.997Z,9.60
2023-04-16T17:34:39.484Z,9.62
2023-04-16T17:37:06.060Z,9.60
2023-04-16T17:39:32.543Z,9.49
2023-04-16T17:42:01.229Z,9.41
2023-04-16T17:44:28.015Z,9.41
2023-04-16T17:46:59.179Z,9.39
2023-04-16T17:49:25.747Z,9.34
2023-04-16T17:51:53.791Z,9.35
2023-04-16T17:54:21.285Z,9.32
2023-04-16T17:56:47.743Z,9.27
2023-04-16T17:59:14.213Z,9.20
2023-04-16T18:01:41.686Z,9.17
2023-04-16T18:04:10.962Z,9.20
2023-04-16T18:06:39.958Z,9.14
2023-04-16T18:09:07.229Z,9.12
2023-04-16T18:11:34.026Z,9.13
2023-04-16T18:14:00.487Z,9.10
2023-04-16T18:16:26.960Z,9.04
2023-04-16T18:18:53.529Z,9.01
2023-04-16T18:21:22.482Z,8.99
2023-04-16T18:23:48.992Z,8.97
2023-04-16T18:26:18.647Z,9.00
2023-04-16T18:28:49.887Z,9.00
2023-04-16T18:31:18.993Z,8.97
2023-04-16T18:33:56.332Z,8.95
2023-04-16T18:36:24.457Z,8.88
2023-04-16T18:39:00.891Z,8.83
2023-04-16T18:41:33.007Z,8.77
2023-04-16T18:43:59.491Z,8.71
2023-04-16T18:46:27.740Z,8.71
2023-04-16T18:48:54.415Z,8.75
2023-04-16T18:51:21.295Z,8.75
2023-04-16T18:53:50.649Z,8.76
2023-04-16T18:56:19.812Z,8.77
2023-04-16T18:58:49.292Z,8.78
2023-04-16T19:01:16.515Z,8.76
2023-04-16T19:03:43.242Z,8.75
2023-04-16T19:06:09.794Z,8.75
2023-04-16T19:08:36.470Z,8.77
2023-04-16T19:11:02.942Z,8.74
2023-04-16T19:13:30.442Z,8.69
2023-04-16T19:16:01.420Z,8.72
2023-04-16T19:18:28.092Z,8.69
2023-04-16T19:21:03.443Z,8.69
2023-04-16T19:23:34.703Z,8.65
2023-04-16T19:26:01.623Z,8.64
2023-04-16T19:28:28.460Z,8.62
2023-04-16T19:30:57.117Z,8.63
2023-04-16T19:33:26.170Z,8.61
2023-04-16T19:35:55.816Z,8.60
2023-04-16T19:38:22.396Z,8.58
2023-04-16T19:40:49.008Z,8.55
2023-04-16T19:43:17.809Z,8.54
2023-04-16T19:45:53.394Z,8.55
2023-04-16T19:48:23.447Z,8.56
2023-04-16T19:50:49.978Z,8.57
2023-04-16T19:53:19.347Z,8.57
2023-04-16T19:55:45.900Z,8.56
2023-04-16T19:58:14.402Z,8.55
2023-04-16T20:00:43.723Z,8.51
2023-04-16T20:03:10.704Z,8.52
2023-04-16T20:05:37.213Z,8.50
2023-04-16T20:08:03.809Z,8.51
2023-04-16T20:10:31.547Z,8.47
2023-04-16T20:12:58.224Z,8.46
2023-04-16T20:15:24.773Z,8.45
2023-04-16T20:17:53.524Z,8.48
2023-04-16T20:20:20.149Z,8.47
2023-04-16T20:22:46.645Z,8.43
2023-04-16T20:25:14.318Z,8.41
2023-04-16T20:27:40.774Z,8.41
2023-04-16T20:30:07.815Z,8.37
2023-04-16T20:32:36.789Z,8.38
2023-04-16T20:35:10.246Z,8.38
2023-04-16T20:37:38.519Z,8.38
2023-04-16T20:40:09.242Z,8.38
2023-04-16T20:42:35.754Z,8.36
2023-04-16T20:45:04.847Z,8.33
2023-04-16T20:47:31.363Z,8.30
2023-04-16T20:50:01.693Z,8.30
2023-04-16T20:52:30.761Z,8.30
2023-04-16T20:54:57.846Z,8.28
2023-04-16T20:57:24.348Z,8.28
2023-04-16T20:59:53.334Z,8.26
2023-04-16T21:02:20.677Z,8.24
2023-04-16T21:04:47.326Z,8.24
2023-04-16T21:07:14.241Z,8.22
2023-04-16T21:09:40.755Z,8.21
2023-04-16T21:12:07.487Z,8.20
2023-04-16T21:14:36.344Z,8.23
2023-04-16T21:17:07.682Z,8.22
2023-04-16T21:19:36.440Z,8.24
2023-04-16T21:22:02.888Z,8.24
2023-04-16T21:24:34.901Z,8.27
2023-04-16T21:27:06.252Z,8.27
2023-04-16T21:29:32.768Z,8.30
2023-04-16T21:31:59.296Z,8.29
2023-04-16T21:34:25.820Z,8.26
2023-04-16T21:36:54.468Z,8.22
2023-04-16T21:39:25.902Z,8.17
2023-04-16T21:41:52.367Z,8.14
2023-04-16T21:44:21.345Z,8.11
2023-04-16T21:46:50.344Z,8.11
2023-04-16T21:49:16.779Z,8.10
2023-04-16T21:51:46.109Z,8.07
2023-04-16T21:54:12.883Z,8.07
2023-04-16T21:56:39.428Z,8.02
2023-04-16T21:59:09.053Z,8.00
2023-04-16T22:01:40.231Z,7.97
2023-04-16T22:04:07.454Z,7.99
2023-04-16T22:06:34.167Z,8.00
2023-04-16T22:09:01.673Z,7.99
2023-04-16T22:11:30.574Z,7.98
2023-04-16T22:13:59.425Z,7.98
2023-04-16T22:16:25.982Z,7.98
2023-04-16T22:18:55.072Z,7.97
2023-04-16T22:21:21.585Z,7.99
2023-04-16T22:23:48.407Z,7.99
2023-04-16T22:26:14.908Z,7.98
2023-04-16T22:28:41.596Z,7.98
2023-04-16T22:31:10.577Z,7.96
2023-04-16T22:33:39.159Z,7.95
2023-04-16T22:36:06.252Z,7.95
2023-04-16T22:38:32.727Z,7.96
2023-04-16T22:40:59.251Z,7.92
2023-04-16T22:43:25.717Z,7.95
2023-04-16T22:46:02.433Z,7.96
2023-04-16T22:48:31.772Z,7.92
2023-04-16T22:50:58.299Z,7.90
2023-04-16T22:53:24.913Z,7.86
2023-04-16T22:55:51.432Z,7.81
2023-04-16T22:58:17.980Z,7.75
2023-04-16T23:00:47.847Z,7.74
2023-04-16T23:03:19.609Z,7.71
2023-04-16T23:05:48.604Z,7.71
2023-04-16T23:08:15.049Z,7.70
2023-04-16T23:10:43.885Z,7.69
2023-04-16T23:13:13.400Z,7.67
2023-04-16T23:15:39.847Z,7.71
2023-04-16T23:18:08.944Z,7.72
2023-04-16T23:20:35.532Z,7.70
2023-04-16T23:23:02.045Z,7.70
2023-04-16T23:25:30.958Z,7.69
2023-04-16T23:27:57.489Z,7.67
2023-04-16T23:30:23.956Z,7.69
2023-04-16T23:32:50.655Z,7.69
2023-04-16T23:35:22.663Z,7.64
2023-04-16T23:37:49.625Z,7.65
2023-04-16T23:40:19.127Z,7.64
2023-04-16T23:42:48.092Z,7.63
2023-04-16T23:45:14.605Z,7.61
2023-04-16T23:47:41.232Z,7.60
2023-04-16T23:50:07.894Z,7.61
2023-04-16T23:52:34.453Z,7.55
2023-04-16T23:55:03.317Z,7.55
2023-04-16T23:57:32.080Z,7.54
2023-04-16T23:59:58.558Z,7.54
